sensor_id;sensor_type;location;lat;lon;timestamp;pressure;altitude;pressure_sealevel;temperature;humidity
21361;BME280;10839;43.206;23.550;2023-04-19T00:00:45;96916.69;;;10.35;100.00
21361;BME280;10839;43.206;23.550;2023-04-19T00:03:11;96911.31;;;10.35;100.00
21361;BME280;10839;43.206;23.550;2023-04-19T00:05:38;96910.84;;;10.24;100.00
21361;BME280;10839;43.206;23.550;2023-04-19T00:08:06;96908.72;;;10.20;100.00
21361;BME280;10839;43.206;23.550;2023-04-19T00:10:32;96904.66;;;10.30;100.00
21361;BME280;10839;43.206;23.550;2023-04-19T00:13:00;96909.19;;;10.30;100.00
21361;BME280;10839;43.206;23.550;2023-04-19T00:15:26;96902.91;;;10.16;100.00
21361;BME280;10839;43.206;23.550;2023-04-19T00:17:52;96903.72;;;10.10;100.00
21361;BME280;10839;43.206;23.550;2023-04-19T00:20:19;96898.69;;;10.42;100.00
21361;BME280;10839;43.206;23.550;2023-04-19T00:22:45;96893.88;;;10.30;100.00
21361;BME280;10839;43.206;23.550;2023-04-19T00:25:11;96898.84;;;10.27;100.00
21361;BME280;10839;43.206;23.550;2023-04-19T00:27:36;96888.66;;;10.16;100.00
21361;BME280;10839;43.206;23.550;2023-04-19T00:30:03;96899.69;;;10.27;100.00
21361;BME280;10839;43.206;23.550;2023-04-19T00:32:29;96898.81;;;10.20;100.00
21361;BME280;10839;43.206;23.550;2023-04-19T00:34:56;96897.53;;;10.16;100.00
21361;BME280;10839;43.206;23.550;2023-04-19T00:37:22;96895.00;;;10.08;100.00
21361;BME280;10839;43.206;23.550;2023-04-19T00:39:47;96892.63;;;10.26;100.00
21361;BME280;10839;43.206;23.550;2023-04-19T00:42:13;96892.44;;;10.28;100.00
21361;BME280;10839;43.206;23.550;2023-04-19T00:44:39;96896.78;;;10.29;100.00
21361;BME280;10839;43.206;23.550;2023-04-19T00:47:05;96904.72;;;10.44;100.00
21361;BME280;10839;43.206;23.550;2023-04-19T00:49:31;96902.19;;;10.36;100.00
21361;BME280;10839;43.206;23.550;2023-04-19T00:51:57;96896.34;;;10.25;100.00
21361;BME280;10839;43.206;23.550;2023-04-19T00:54:22;96897.53;;;10.16;100.00
21361;BME280;10839;43.206;23.550;2023-04-19T00:56:50;96895.81;;;10.43;100.00
21361;BME280;10839;43.206;23.550;2023-04-19T00:59:17;96892.31;;;10.43;100.00
21361;BME280;10839;43.206;23.550;2023-04-19T01:01:42;96895.16;;;10.35;100.00
21361;BME280;10839;43.206;23.550;2023-04-19T01:04:08;96885.13;;;10.15;100.00
21361;BME280;10839;43.206;23.550;2023-04-19T01:06:35;96883.53;;;10.27;100.00
21361;BME280;10839;43.206;23.550;2023-04-19T01:09:01;96888.09;;;10.33;100.00
21361;BME280;10839;43.206;23.550;2023-04-19T01:11:27;96887.56;;;10.10;100.00
21361;BME280;10839;43.206;23.550;2023-04-19T01:13:54;96886.44;;;10.26;100.00
21361;BME280;10839;43.206;23.550;2023-04-19T01:16:21;96874.03;;;10.31;100.00
21361;BME280;10839;43.206;23.550;2023-04-19T01:18:49;96874.19;;;10.23;100.00
21361;BME280;10839;43.206;23.550;2023-04-19T01:21:15;96876.03;;;10.16;100.00
21361;BME280;10839;43.206;23.550;2023-04-19T01:23:41;96871.09;;;10.26;100.00
21361;BME280;10839;43.206;23.550;2023-04-19T01:26:07;96864.91;;;10.26;100.00
21361;BME280;10839;43.206;23.550;2023-04-19T01:28:34;96870.28;;;10.19;100.00
21361;BME280;10839;43.206;23.550;2023-04-19T01:31:00;96863.63;;;10.15;100.00
21361;BME280;10839;43.206;23.550;2023-04-19T01:33:26;96871.06;;;10.20;100.00
21361;BME280;10839;43.206;23.550;2023-04-19T01:35:51;96866.53;;;10.20;100.00
21361;BME280;10839;43.206;23.550;2023-04-19T01:38:17;96864.09;;;10.25;100.00
21361;BME280;10839;43.206;23.550;2023-04-19T01:40:43;96860.28;;;10.13;100.00
21361;BME280;10839;43.206;23.550;2023-04-19T01:43:15;96862.44;;;10.24;100.00
21361;BME280;10839;43.206;23.550;2023-04-19T01:45:42;96863.28;;;10.31;100.00
21361;BME280;10839;43.206;23.550;2023-04-19T01:48:08;96859.88;;;10.16;100.00
21361;BME280;10839;43.206;23.550;2023-04-19T01:50:34;96854.91;;;10.13;100.00
21361;BME280;10839;43.206;23.550;2023-04-19T01:53:00;96845.44;;;10.17;100.00
21361;BME280;10839;43.206;23.550;2023-04-19T01:55:25;96855.28;;;10.45;100.00
21361;BME280;10839;43.206;23.550;2023-04-19T01:57:52;96850.03;;;10.30;100.00
21361;BME280;10839;43.206;23.550;2023-04-19T02:00:19;96851.69;;;10.24;100.00
21361;BME280;10839;43.206;23.550;2023-04-19T02:02:46;96848.81;;;10.32;100.00
21361;BME280;10839;43.206;23.550;2023-04-19T02:05:14;96855.78;;;10.20;100.00
21361;BME280;10839;43.206;23.550;2023-04-19T02:07:40;96845.03;;;10.20;100.00
21361;BME280;10839;43.206;23.550;2023-04-19T02:10:09;96840.94;;;10.24;100.00
21361;BME280;10839;43.206;23.550;2023-04-19T02:12:40;96845.50;;;10.30;100.00
21361;BME280;10839;43.206;23.550;2023-04-19T02:15:07;96852.47;;;10.18;100.00
21361;BME280;10839;43.206;23.550;2023-04-19T02:17:33;96848.38;;;10.29;100.00
21361;BME280;10839;43.206;23.550;2023-04-19T02:20:00;96843.63;;;10.24;100.00
21361;BME280;10839;43.206;23.550;2023-04-19T02:22:26;96844.69;;;10.37;100.00
21361;BME280;10839;43.206;23.550;2023-04-19T02:24:52;96839.06;;;10.31;100.00
21361;BME280;10839;43.206;23.550;2023-04-19T02:27:18;96843.03;;;10.36;100.00
21361;BME280;10839;43.206;23.550;2023-04-19T02:29:44;96842.16;;;10.28;100.00
21361;BME280;10839;43.206;23.550;2023-04-19T02:32:13;96843.63;;;10.31;100.00
21361;BME280;10839;43.206;23.550;2023-04-19T02:34:38;96842.34;;;10.20;100.00
21361;BME280;10839;43.206;23.550;2023-04-19T02:37:05;96838.38;;;10.16;100.00
21361;BME280;10839;43.206;23.550;2023-04-19T02:39:30;96838.78;;;10.13;100.00
21361;BME280;10839;43.206;23.550;2023-04-19T02:41:58;96846.31;;;10.24;100.00
21361;BME280;10839;43.206;23.550;2023-04-19T02:44:25;96830.94;;;10.18;100.00
21361;BME280;10839;43.206;23.550;2023-04-19T02:46:52;96832.22;;;10.22;100.00
21361;BME280;10839;43.206;23.550;2023-04-19T02:49:20;96826.88;;;10.29;100.00
21361;BME280;10839;43.206;23.550;2023-04-19T02:51:46;96841.31;;;10.21;100.00
21361;BME280;10839;43.206;23.550;2023-04-19T02:54:13;96830.53;;;10.21;100.00
21361;BME280;10839;43.206;23.550;2023-04-19T02:56:41;96836.38;;;10.31;100.00
21361;BME280;10839;43.206;23.550;2023-04-19T02:59:07;96835.81;;;10.36;100.00
21361;BME280;10839;43.206;23.550;2023-04-19T03:01:33;96826.91;;;10.01;100.00
21361;BME280;10839;43.206;23.550;2023-04-19T03:04:03;96827.72;;;10.29;100.00
21361;BME280;10839;43.206;23.550;2023-04-19T03:06:29;96828.50;;;10.30;100.00
21361;BME280;10839;43.206;23.550;2023-04-19T03:08:55;96821.47;;;10.22;100.00
21361;BME280;10839;43.206;23.550;2023-04-19T03:11:21;96828.69;;;10.22;100.00
21361;BME280;10839;43.206;23.550;2023-04-19T03:13:47;96823.16;;;10.37;100.00
21361;BME280;10839;43.206;23.550;2023-04-19T03:16:13;96826.91;;;10.36;100.00
21361;BME280;10839;43.206;23.550;2023-04-19T03:18:41;96832.28;;;10.36;100.00
21361;BME280;10839;43.206;23.550;2023-04-19T03:21:07;96823.97;;;10.30;100.00
21361;BME280;10839;43.206;23.550;2023-04-19T03:23:51;96818.88;;;10.49;100.00
21361;BME280;10839;43.206;23.550;2023-04-19T03:26:17;96818.63;;;10.44;100.00
21361;BME280;10839;43.206;23.550;2023-04-19T03:28:46;96813.22;;;10.30;100.00
21361;BME280;10839;43.206;23.550;2023-04-19T03:31:36;96821.38;;;10.57;100.00
21361;BME280;10839;43.206;23.550;2023-04-19T03:34:03;96831.03;;;10.38;100.00
21361;BME280;10839;43.206;23.550;2023-04-19T03:36:35;96817.78;;;10.37;100.00
21361;BME280;10839;43.206;23.550;2023-04-19T03:39:02;96829.59;;;10.42;100.00
21361;BME280;10839;43.206;23.550;2023-04-19T03:41:28;96821.09;;;10.39;100.00
21361;BME280;10839;43.206;23.550;2023-04-19T03:44:33;96825.72;;;10.51;100.00
21361;BME280;10839;43.206;23.550;2023-04-19T03:47:01;96821.94;;;10.32;100.00
21361;BME280;10839;43.206;23.550;2023-04-19T03:49:31;96817.00;;;10.43;100.00
21361;BME280;10839;43.206;23.550;2023-04-19T03:52:03;96821.16;;;10.52;100.00
21361;BME280;10839;43.206;23.550;2023-04-19T03:54:29;96822.00;;;10.59;100.00
21361;BME280;10839;43.206;23.550;2023-04-19T03:56:55;96817.19;;;10.35;100.00
21361;BME280;10839;43.206;23.550;2023-04-19T03:59:23;96814.94;;;10.45;100.00
21361;BME280;10839;43.206;23.550;2023-04-19T04:01:48;96821.16;;;10.52;100.00
21361;BME280;10839;43.206;23.550;2023-04-19T04:04:14;96823.59;;;10.47;100.00
21361;BME280;10839;43.206;23.550;2023-04-19T04:06:40;96827.56;;;10.51;100.00
21361;BME280;10839;43.206;23.550;2023-04-19T04:09:06;96835.91;;;10.75;100.00
21361;BME280;10839;43.206;23.550;2023-04-19T04:11:32;96822.84;;;10.59;100.00
21361;BME280;10839;43.206;23.550;2023-04-19T04:13:58;96826.94;;;10.49;100.00
21361;BME280;10839;43.206;23.550;2023-04-19T04:16:27;96832.31;;;10.49;100.00
21361;BME280;10839;43.206;23.550;2023-04-19T04:18:54;96830.91;;;10.59;100.00
21361;BME280;10839;43.206;23.550;2023-04-19T04:21:23;96828.44;;;10.58;100.00
21361;BME280;10839;43.206;23.550;2023-04-19T04:23:50;96832.34;;;10.62;100.00
21361;BME280;10839;43.206;23.550;2023-04-19T04:26:26;96829.53;;;10.83;100.00
21361;BME280;10839;43.206;23.550;2023-04-19T04:29:05;96817.47;;;10.66;100.00
21361;BME280;10839;43.206;23.550;2023-04-19T04:31:35;96827.00;;;10.75;100.00
21361;BME280;10839;43.206;23.550;2023-04-19T04:34:02;96821.59;;;10.62;100.00
21361;BME280;10839;43.206;23.550;2023-04-19T04:36:30;96823.25;;;10.63;100.00
21361;BME280;10839;43.206;23.550;2023-04-19T04:38:57;96829.47;;;10.70;100.00
21361;BME280;10839;43.206;23.550;2023-04-19T04:41:23;96824.28;;;10.62;100.00
21361;BME280;10839;43.206;23.550;2023-04-19T04:43:50;96820.78;;;10.68;100.00
21361;BME280;10839;43.206;23.550;2023-04-19T04:46:20;96830.31;;;10.77;100.00
21361;BME280;10839;43.206;23.550;2023-04-19T04:48:45;96821.03;;;10.86;100.00
21361;BME280;10839;43.206;23.550;2023-04-19T04:51:11;96830.97;;;10.85;100.00
21361;BME280;10839;43.206;23.550;2023-04-19T04:53:40;96828.28;;;11.05;100.00
21361;BME280;10839;43.206;23.550;2023-04-19T04:56:07;96823.31;;;11.02;100.00
21361;BME280;10839;43.206;23.550;2023-04-19T04:58:34;96829.13;;;10.92;100.00
21361;BME280;10839;43.206;23.550;2023-04-19T05:01:05;96838.47;;;11.16;100.00
21361;BME280;10839;43.206;23.550;2023-04-19T05:03:46;96830.16;;;11.37;100.00
21361;BME280;10839;43.206;23.550;2023-04-19T05:06:16;96827.69;;;11.16;100.00
21361;BME280;10839;43.206;23.550;2023-04-19T05:08:43;96829.53;;;10.96;100.00
21361;BME280;10839;43.206;23.550;2023-04-19T05:11:20;96830.75;;;11.00;100.00
21361;BME280;10839;43.206;23.550;2023-04-19T05:13:46;96839.06;;;11.05;100.00
21361;BME280;10839;43.206;23.550;2023-04-19T05:16:12;96836.97;;;10.94;100.00
21361;BME280;10839;43.206;23.550;2023-04-19T05:18:42;96835.34;;;10.93;100.00
21361;BME280;10839;43.206;23.550;2023-04-19T05:21:09;96841.38;;;11.08;100.00
21361;BME280;10839;43.206;23.550;2023-04-19T05:23:36;96838.25;;;10.98;100.00
21361;BME280;10839;43.206;23.550;2023-04-19T05:26:04;96842.38;;;10.94;100.00
21361;BME280;10839;43.206;23.550;2023-04-19T05:28:30;96843.22;;;11.14;100.00
21361;BME280;10839;43.206;23.550;2023-04-19T05:31:04;96839.47;;;11.08;100.00
21361;BME280;10839;43.206;23.550;2023-04-19T05:33:37;96836.16;;;11.00;100.00
21361;BME280;10839;43.206;23.550;2023-04-19T05:36:04;96838.25;;;11.24;100.00
21361;BME280;10839;43.206;23.550;2023-04-19T05:38:29;96837.84;;;11.40;100.00
21361;BME280;10839;43.206;23.550;2023-04-19T05:40:58;96842.38;;;11.13;100.00
21361;BME280;10839;43.206;23.550;2023-04-19T05:43:23;96839.06;;;11.18;100.00
21361;BME280;10839;43.206;23.550;2023-04-19T05:45:50;96838.69;;;11.34;100.00
21361;BME280;10839;43.206;23.550;2023-04-19T05:48:15;96839.72;;;11.46;100.00
21361;BME280;10839;43.206;23.550;2023-04-19T05:50:59;96839.50;;;11.34;100.00
21361;BME280;10839;43.206;23.550;2023-04-19T05:53:37;96847.59;;;11.54;100.00
21361;BME280;10839;43.206;23.550;2023-04-19T05:56:03;96843.22;;;11.46;100.00
21361;BME280;10839;43.206;23.550;2023-04-19T05:58:29;96838.22;;;11.63;100.00
21361;BME280;10839;43.206;23.550;2023-04-19T06:00:55;96832.88;;;11.70;100.00
21361;BME280;10839;43.206;23.550;2023-04-19T06:03:22;96847.75;;;11.98;100.00
21361;BME280;10839;43.206;23.550;2023-04-19T06:05:48;96845.47;;;11.95;100.00
21361;BME280;10839;43.206;23.550;2023-04-19T06:08:14;96846.13;;;11.65;100.00
21361;BME280;10839;43.206;23.550;2023-04-19T06:10:41;96849.81;;;12.09;100.00
21361;BME280;10839;43.206;23.550;2023-04-19T06:13:09;96843.44;;;11.84;100.00
21361;BME280;10839;43.206;23.550;2023-04-19T06:15:35;96843.03;;;11.61;100.00
21361;BME280;10839;43.206;23.550;2023-04-19T06:18:00;96852.34;;;11.78;100.00
21361;BME280;10839;43.206;23.550;2023-04-19T06:20:26;96851.47;;;12.10;100.00
21361;BME280;10839;43.206;23.550;2023-04-19T06:22:52;96843.22;;;11.79;100.00
21361;BME280;10839;43.206;23.550;2023-04-19T06:25:18;96844.66;;;11.62;100.00
21361;BME280;10839;43.206;23.550;2023-04-19T06:27:43;96850.25;;;11.93;100.00
21361;BME280;10839;43.206;23.550;2023-04-19T06:30:09;96847.72;;;12.05;100.00
21361;BME280;10839;43.206;23.550;2023-04-19T06:32:35;96844.03;;;11.99;100.00
21361;BME280;10839;43.206;23.550;2023-04-19T06:35:01;96846.50;;;12.07;100.00
21361;BME280;10839;43.206;23.550;2023-04-19T06:37:27;96845.34;;;12.34;100.00
21361;BME280;10839;43.206;23.550;2023-04-19T06:39:53;96855.97;;;12.23;100.00
21361;BME280;10839;43.206;23.550;2023-04-19T06:42:20;96853.91;;;12.18;100.00
21361;BME280;10839;43.206;23.550;2023-04-19T06:44:45;96852.16;;;12.43;100.00
21361;BME280;10839;43.206;23.550;2023-04-19T06:47:11;96847.94;;;12.60;100.00
21361;BME280;10839;43.206;23.550;2023-04-19T06:49:37;96853.88;;;12.31;100.00
21361;BME280;10839;43.206;23.550;2023-04-19T06:52:03;96859.00;;;12.52;100.00
21361;BME280;10839;43.206;23.550;2023-04-19T06:54:29;96852.53;;;12.91;100.00
21361;BME280;10839;43.206;23.550;2023-04-19T06:56:55;96855.63;;;12.63;100.00
21361;BME280;10839;43.206;23.550;2023-04-19T06:59:21;96858.81;;;13.23;100.00
21361;BME280;10839;43.206;23.550;2023-04-19T07:01:47;96863.97;;;13.31;100.00
21361;BME280;10839;43.206;23.550;2023-04-19T07:04:13;96853.00;;;13.75;100.00
21361;BME280;10839;43.206;23.550;2023-04-19T07:06:39;96860.50;;;13.24;100.00
21361;BME280;10839;43.206;23.550;2023-04-19T07:09:06;96857.13;;;13.28;100.00
21361;BME280;10839;43.206;23.550;2023-04-19T07:11:33;96852.00;;;13.94;100.00
21361;BME280;10839;43.206;23.550;2023-04-19T07:13:59;96860.28;;;14.71;100.00
21361;BME280;10839;43.206;23.550;2023-04-19T07:16:27;96860.81;;;15.09;100.00
21361;BME280;10839;43.206;23.550;2023-04-19T07:18:53;96855.41;;;15.51;100.00
21361;BME280;10839;43.206;23.550;2023-04-19T07:21:19;96847.34;;;15.32;100.00
21361;BME280;10839;43.206;23.550;2023-04-19T07:23:45;96853.81;;;14.90;100.00
21361;BME280;10839;43.206;23.550;2023-04-19T07:26:11;96850.28;;;15.31;100.00
21361;BME280;10839;43.206;23.550;2023-04-19T07:28:38;96850.97;;;15.68;100.00
21361;BME280;10839;43.206;23.550;2023-04-19T07:31:04;96852.69;;;15.09;100.00
21361;BME280;10839;43.206;23.550;2023-04-19T07:33:30;96849.31;;;15.44;100.00
21361;BME280;10839;43.206;23.550;2023-04-19T07:35:56;96850.75;;;16.04;100.00
21361;BME280;10839;43.206;23.550;2023-04-19T07:38:22;96856.53;;;16.07;99.69
21361;BME280;10839;43.206;23.550;2023-04-19T07:40:49;96856.50;;;15.61;99.30
21361;BME280;10839;43.206;23.550;2023-04-19T07:43:15;96853.59;;;15.86;98.76
21361;BME280;10839;43.206;23.550;2023-04-19T07:45:41;96862.69;;;15.91;96.85
21361;BME280;10839;43.206;23.550;2023-04-19T07:48:07;96858.97;;;17.06;89.80
21361;BME280;10839;43.206;23.550;2023-04-19T07:50:33;96863.66;;;17.11;90.42
21361;BME280;10839;43.206;23.550;2023-04-19T07:52:59;96862.06;;;16.47;92.85
21361;BME280;10839;43.206;23.550;2023-04-19T07:55:25;96861.97;;;16.93;89.59
21361;BME280;10839;43.206;23.550;2023-04-19T07:57:50;96862.53;;;16.44;91.06
21361;BME280;10839;43.206;23.550;2023-04-19T08:00:17;96852.88;;;16.25;93.43
21361;BME280;10839;43.206;23.550;2023-04-19T08:02:46;96845.06;;;16.63;93.02
21361;BME280;10839;43.206;23.550;2023-04-19T08:05:16;96846.13;;;16.90;90.38
21361;BME280;10839;43.206;23.550;2023-04-19T08:07:42;96855.94;;;17.19;89.50
21361;BME280;10839;43.206;23.550;2023-04-19T08:10:08;96858.84;;;17.57;85.89
21361;BME280;10839;43.206;23.550;2023-04-19T08:12:35;96849.88;;;17.29;88.18
21361;BME280;10839;43.206;23.550;2023-04-19T08:15:02;96847.97;;;17.57;85.06
21361;BME280;10839;43.206;23.550;2023-04-19T08:17:28;96846.50;;;17.66;84.31
21361;BME280;10839;43.206;23.550;2023-04-19T08:19:54;96843.38;;;17.74;82.83
21361;BME280;10839;43.206;23.550;2023-04-19T08:22:20;96846.16;;;18.13;81.19
21361;BME280;10839;43.206;23.550;2023-04-19T08:24:48;96842.38;;;18.73;78.03
21361;BME280;10839;43.206;23.550;2023-04-19T08:27:14;96836.03;;;19.64;73.46
21361;BME280;10839;43.206;23.550;2023-04-19T08:29:40;96843.19;;;20.95;67.40
21361;BME280;10839;43.206;23.550;2023-04-19T08:32:06;96839.72;;;21.10;66.45
21361;BME280;10839;43.206;23.550;2023-04-19T08:34:35;96839.72;;;21.15;65.96
21361;BME280;10839;43.206;23.550;2023-04-19T08:37:02;96827.81;;;22.01;63.91
21361;BME280;10839;43.206;23.550;2023-04-19T08:39:30;96817.91;;;22.45;59.86
21361;BME280;10839;43.206;23.550;2023-04-19T08:41:56;96817.97;;;22.10;60.43
21361;BME280;10839;43.206;23.550;2023-04-19T08:44:24;96817.38;;;20.71;64.29
21361;BME280;10839;43.206;23.550;2023-04-19T08:46:51;96809.44;;;20.70;64.49
21361;BME280;10839;43.206;23.550;2023-04-19T08:49:17;96803.41;;;20.63;66.35
21361;BME280;10839;43.206;23.550;2023-04-19T08:51:47;96800.84;;;20.41;65.23
21361;BME280;10839;43.206;23.550;2023-04-19T08:54:14;96804.06;;;19.96;67.49
21361;BME280;10839;43.206;23.550;2023-04-19T08:56:41;96798.31;;;19.93;68.27
21361;BME280;10839;43.206;23.550;2023-04-19T08:59:07;96800.63;;;19.74;69.68
21361;BME280;10839;43.206;23.550;2023-04-19T09:01:33;96801.38;;;20.01;67.26
21361;BME280;10839;43.206;23.550;2023-04-19T09:03:58;96803.88;;;20.50;64.97
21361;BME280;10839;43.206;23.550;2023-04-19T09:06:24;96804.44;;;21.13;62.50
21361;BME280;10839;43.206;23.550;2023-04-19T09:08:51;96795.56;;;20.24;64.02
21361;BME280;10839;43.206;23.550;2023-04-19T09:11:35;96788.34;;;20.13;67.42
21361;BME280;10839;43.206;23.550;2023-04-19T09:14:16;96786.03;;;19.59;68.54
21361;BME280;10839;43.206;23.550;2023-04-19T09:16:43;96787.06;;;18.73;69.75
21361;BME280;10839;43.206;23.550;2023-04-19T09:19:09;96784.34;;;18.51;72.89
21361;BME280;10839;43.206;23.550;2023-04-19T09:21:37;96793.00;;;18.70;74.07
21361;BME280;10839;43.206;23.550;2023-04-19T09:24:03;96791.38;;;19.22;68.32
21361;BME280;10839;43.206;23.550;2023-04-19T09:26:31;96777.19;;;19.83;68.90
21361;BME280;10839;43.206;23.550;2023-04-19T09:29:02;96771.28;;;19.60;66.98
21361;BME280;10839;43.206;23.550;2023-04-19T09:31:35;96780.03;;;19.62;66.22
21361;BME280;10839;43.206;23.550;2023-04-19T09:34:15;96777.63;;;19.34;64.74
21361;BME280;10839;43.206;23.550;2023-04-19T09:36:41;96781.88;;;19.83;64.74
21361;BME280;10839;43.206;23.550;2023-04-19T09:39:07;96787.06;;;19.84;61.83
21361;BME280;10839;43.206;23.550;2023-04-19T09:41:33;96774.97;;;19.75;62.59
21361;BME280;10839;43.206;23.550;2023-04-19T09:44:11;96785.28;;;20.52;60.72
21361;BME280;10839;43.206;23.550;2023-04-19T09:46:40;96782.91;;;22.02;56.53
21361;BME280;10839;43.206;23.550;2023-04-19T09:51:48;96774.38;;;22.19;53.58
21361;BME280;10839;43.206;23.550;2023-04-19T09:54:16;96771.78;;;22.62;53.79
21361;BME280;10839;43.206;23.550;2023-04-19T09:56:43;96769.22;;;23.73;50.85
21361;BME280;10839;43.206;23.550;2023-04-19T09:59:09;96763.66;;;24.17;51.15
21361;BME280;10839;43.206;23.550;2023-04-19T10:01:45;96759.84;;;23.41;53.06
21361;BME280;10839;43.206;23.550;2023-04-19T10:04:13;96754.41;;;21.83;52.88
21361;BME280;10839;43.206;23.550;2023-04-19T10:06:47;96755.19;;;21.18;54.84
21361;BME280;10839;43.206;23.550;2023-04-19T10:09:14;96753.00;;;20.44;55.47
21361;BME280;10839;43.206;23.550;2023-04-19T10:11:42;96751.41;;;20.48;56.84
21361;BME280;10839;43.206;23.550;2023-04-19T10:14:14;96765.50;;;20.24;56.90
21361;BME280;10839;43.206;23.550;2023-04-19T10:16:40;96745.38;;;20.51;57.41
21361;BME280;10839;43.206;23.550;2023-04-19T10:19:11;96753.53;;;20.36;58.02
21361;BME280;10839;43.206;23.550;2023-04-19T10:21:40;96739.97;;;19.09;60.62
21361;BME280;10839;43.206;23.550;2023-04-19T10:24:08;96747.03;;;19.05;59.42
21361;BME280;10839;43.206;23.550;2023-04-19T10:27:11;96753.91;;;20.12;56.99
21361;BME280;10839;43.206;23.550;2023-04-19T10:29:54;96740.38;;;19.49;58.12
21361;BME280;10839;43.206;23.550;2023-04-19T10:32:20;96747.59;;;20.59;55.50
21361;BME280;10839;43.206;23.550;2023-04-19T10:34:46;96736.09;;;20.52;54.97
21361;BME280;10839;43.206;23.550;2023-04-19T10:37:15;96736.69;;;20.12;58.34
21361;BME280;10839;43.206;23.550;2023-04-19T10:39:42;96735.09;;;19.11;58.70
21361;BME280;10839;43.206;23.550;2023-04-19T10:42:09;96737.06;;;18.89;61.57
21361;BME280;10839;43.206;23.550;2023-04-19T10:44:35;96735.06;;;19.06;60.79
21361;BME280;10839;43.206;23.550;2023-04-19T10:47:01;96733.81;;;18.92;61.83
21361;BME280;10839;43.206;23.550;2023-04-19T10:49:27;96733.13;;;19.33;61.57
21361;BME280;10839;43.206;23.550;2023-04-19T10:51:53;96728.69;;;18.47;62.86
21361;BME280;10839;43.206;23.550;2023-04-19T10:54:32;96736.00;;;18.04;65.76
21361;BME280;10839;43.206;23.550;2023-04-19T10:57:05;96733.94;;;18.54;64.29
21361;BME280;10839;43.206;23.550;2023-04-19T10:59:36;96733.34;;;17.54;66.33
21361;BME280;10839;43.206;23.550;2023-04-19T11:02:25;96722.97;;;17.67;67.08
21361;BME280;10839;43.206;23.550;2023-04-19T11:07:17;96732.84;;;17.40;69.31
21361;BME280;10839;43.206;23.550;2023-04-19T11:09:47;96713.88;;;16.96;72.17
21361;BME280;10839;43.206;23.550;2023-04-19T11:12:16;96732.88;;;16.79;76.01
21361;BME280;10839;43.206;23.550;2023-04-19T11:14:53;96729.66;;;16.82;78.47
21361;BME280;10839;43.206;23.550;2023-04-19T11:17:24;96727.44;;;16.79;79.82
21361;BME280;10839;43.206;23.550;2023-04-19T11:20:07;96721.28;;;16.44;82.21
21361;BME280;10839;43.206;23.550;2023-04-19T11:22:45;96734.00;;;16.27;84.92
21361;BME280;10839;43.206;23.550;2023-04-19T11:25:19;96723.31;;;15.97;88.63
21361;BME280;10839;43.206;23.550;2023-04-19T11:27:51;96729.84;;;15.73;90.68
21361;BME280;10839;43.206;23.550;2023-04-19T11:30:27;96733.28;;;15.69;89.15
21361;BME280;10839;43.206;23.550;2023-04-19T11:32:55;96733.63;;;15.49;91.62
21361;BME280;10839;43.206;23.550;2023-04-19T11:37:48;96741.75;;;15.84;90.13
21361;BME280;10839;43.206;23.550;2023-04-19T11:40:15;96747.16;;;16.07;90.16
21361;BME280;10839;43.206;23.550;2023-04-19T11:42:42;96749.19;;;16.51;87.22
21361;BME280;10839;43.206;23.550;2023-04-19T11:45:11;96768.69;;;16.48;87.41
21361;BME280;10839;43.206;23.550;2023-04-19T11:47:49;96758.03;;;15.61;97.46
21361;BME280;10839;43.206;23.550;2023-04-19T11:50:31;96780.78;;;15.94;97.02
21361;BME280;10839;43.206;23.550;2023-04-19T11:52:58;96772.78;;;15.65;99.33
21361;BME280;10839;43.206;23.550;2023-04-19T11:55:24;96766.38;;;15.94;97.12
21361;BME280;10839;43.206;23.550;2023-04-19T11:57:50;96768.03;;;15.37;99.93
21361;BME280;10839;43.206;23.550;2023-04-19T12:00:26;96766.19;;;14.96;100.00
21361;BME280;10839;43.206;23.550;2023-04-19T12:02:53;96768.13;;;15.30;100.00
21361;BME280;10839;43.206;23.550;2023-04-19T12:05:19;96756.09;;;15.26;100.00
21361;BME280;10839;43.206;23.550;2023-04-19T12:08:05;96745.78;;;15.47;100.00
21361;BME280;10839;43.206;23.550;2023-04-19T12:10:33;96744.84;;;14.88;100.00
21361;BME280;10839;43.206;23.550;2023-04-19T12:13:12;96735.03;;;14.46;100.00
21361;BME280;10839;43.206;23.550;2023-04-19T12:15:41;96738.81;;;14.45;100.00
21361;BME280;10839;43.206;23.550;2023-04-19T12:18:08;96727.81;;;15.22;100.00
21361;BME280;10839;43.206;23.550;2023-04-19T12:20:36;96728.81;;;14.57;100.00
21361;BME280;10839;43.206;23.550;2023-04-19T12:23:02;96723.34;;;15.16;100.00
21361;BME280;10839;43.206;23.550;2023-04-19T12:25:33;96729.28;;;14.84;100.00
21361;BME280;10839;43.206;23.550;2023-04-19T12:28:01;96725.78;;;14.95;100.00
21361;BME280;10839;43.206;23.550;2023-04-19T12:30:27;96722.88;;;15.66;100.00
21361;BME280;10839;43.206;23.550;2023-04-19T12:32:53;96725.84;;;15.53;100.00
21361;BME280;10839;43.206;23.550;2023-04-19T12:35:26;96723.38;;;15.63;100.00
21361;BME280;10839;43.206;23.550;2023-04-19T12:37:52;96725.38;;;16.30;93.90
21361;BME280;10839;43.206;23.550;2023-04-19T12:40:19;96725.72;;;15.48;95.98
21361;BME280;10839;43.206;23.550;2023-04-19T12:42:46;96706.66;;;16.05;95.13
21361;BME280;10839;43.206;23.550;2023-04-19T12:45:12;96701.66;;;15.63;95.40
21361;BME280;10839;43.206;23.550;2023-04-19T12:47:40;96704.56;;;15.96;89.75
21361;BME280;10839;43.206;23.550;2023-04-19T12:50:06;96704.88;;;16.11;87.81
21361;BME280;10839;43.206;23.550;2023-04-19T12:52:33;96702.03;;;16.57;86.21
21361;BME280;10839;43.206;23.550;2023-04-19T12:54:59;96697.44;;;16.74;89.09